Foleyet, Canada
Current Conditions -  °F | °C
As of 9:00 PM on Monday 24 Nov 2014 (Local Time) from CYLD Reporting Station
Overcast Overcast  
Wind Chill:   Ceiling: 1800
Heat Index: 21°   Visibility: 15mi
Dew Point: 18°   Wind: 12mph
Humidity: 86%   Direction: 350°N
Pressure: 29.26"   Gusts: NA
Location:  48.25°N, 82.43°W
Report Text: CYLD 250200Z 35010KT 15SM OVC018 M06/M08 A2926 RMK SC8 SLP925
Loading
Personal Weather Stations






























Interactive Weather Map New forecast layout! Learn more

10-Day Weather Forecast

Advertisements
Track Severe Weather on mobile